createdAt,value
2018-04-30T00:00:40.785Z,71.70
2018-04-30T00:03:08.284Z,73.27
2018-04-30T00:05:35.812Z,76.10
2018-04-30T00:08:03.713Z,77.87
2018-04-30T00:10:31.225Z,76.50
2018-04-30T00:12:58.728Z,76.30
2018-04-30T00:15:26.647Z,81.57
2018-04-30T00:17:54.150Z,78.87
2018-04-30T00:20:21.730Z,78.27
2018-04-30T00:22:49.235Z,72.23
2018-04-30T00:25:17.148Z,71.87
2018-04-30T00:27:44.647Z,79.10
2018-04-30T00:30:12.167Z,76.43
2018-04-30T00:32:39.668Z,74.27
2018-04-30T00:35:07.188Z,76.57
2018-04-30T00:37:35.096Z,71.17
2018-04-30T00:40:02.614Z,72.90
2018-04-30T00:42:30.119Z,77.03
2018-04-30T00:44:58.035Z,78.97
2018-04-30T00:47:25.547Z,75.87
2018-04-30T00:49:53.080Z,76.03
2018-04-30T00:52:20.588Z,73.30
2018-04-30T00:55:00.057Z,72.97
2018-04-30T00:57:28.061Z,72.70
2018-04-30T00:59:55.581Z,72.07
2018-04-30T01:02:23.084Z,79.93
2018-04-30T01:04:50.994Z,82.30
2018-04-30T01:07:18.523Z,87.00
2018-04-30T01:09:46.108Z,79.10
2018-04-30T01:12:17.876Z,82.27
2018-04-30T01:14:45.772Z,76.60
2018-04-30T01:17:13.295Z,75.33
2018-04-30T01:19:40.795Z,76.50
2018-04-30T01:22:08.711Z,80.20
2018-04-30T01:24:36.216Z,81.00
2018-04-30T01:27:03.736Z,83.20
2018-04-30T01:29:31.239Z,86.70
2018-04-30T01:31:58.767Z,87.63
2018-04-30T01:34:26.664Z,95.17
2018-04-30T01:36:54.189Z,93.53
2018-04-30T01:39:21.691Z,86.83
2018-04-30T01:41:49.610Z,91.90
2018-04-30T01:44:17.115Z,85.90
2018-04-30T01:46:44.636Z,79.27
2018-04-30T01:49:12.224Z,93.00
2018-04-30T01:51:39.750Z,90.67
2018-04-30T01:54:07.643Z,89.67
2018-04-30T01:56:35.556Z,92.23
2018-04-30T01:59:03.062Z,87.50
2018-04-30T02:01:30.579Z,86.00
2018-04-30T02:03:58.084Z,95.57
2018-04-30T02:06:25.608Z,85.80
2018-04-30T02:08:53.515Z,94.87
2018-04-30T02:11:21.034Z,89.17
2018-04-30T02:13:48.541Z,95.17
2018-04-30T02:16:16.063Z,93.50
2018-04-30T02:18:43.573Z,85.97
2018-04-30T02:21:11.108Z,94.70
2018-04-30T02:23:38.620Z,101.73
2018-04-30T02:26:06.156Z,86.53
2018-04-30T02:28:33.661Z,78.20
2018-04-30T02:31:01.588Z,74.93
2018-04-30T02:33:29.194Z,62.70
2018-04-30T02:35:56.619Z,77.83
2018-04-30T02:38:24.137Z,67.03
2018-04-30T02:40:52.044Z,56.77
2018-04-30T02:43:19.567Z,58.83
2018-04-30T02:45:47.068Z,55.40
2018-04-30T02:48:14.988Z,56.47
2018-04-30T02:50:42.488Z,52.00
2018-04-30T02:53:10.013Z,53.43
2018-04-30T02:55:37.525Z,59.30
2018-04-30T02:58:05.056Z,75.23
2018-04-30T03:00:32.565Z,54.50
2018-04-30T03:03:00.076Z,50.20
2018-04-30T03:05:27.979Z,53.20
2018-04-30T03:07:55.500Z,51.53
2018-04-30T03:10:23.018Z,71.77
2018-04-30T03:12:50.547Z,62.00
2018-04-30T03:15:18.052Z,65.20
2018-04-30T03:17:45.585Z,49.07
2018-04-30T03:20:13.088Z,50.03
2018-04-30T03:22:41.005Z,56.33
2018-04-30T03:25:08.507Z,51.93
2018-04-30T03:27:36.023Z,52.50
2018-04-30T03:30:03.527Z,52.73
2018-04-30T03:32:31.051Z,51.83
2018-04-30T03:34:58.951Z,55.27
2018-04-30T03:37:26.472Z,49.43
2018-04-30T03:39:53.975Z,46.33
2018-04-30T03:42:21.883Z,48.07
2018-04-30T03:44:49.383Z,43.47
2018-04-30T03:47:16.905Z,43.63
2018-04-30T03:49:44.532Z,38.03
2018-04-30T03:52:11.964Z,38.97
2018-04-30T03:54:39.471Z,34.93
2018-04-30T03:57:07.076Z,35.83
2018-04-30T03:59:34.527Z,31.87
2018-04-30T04:02:13.973Z,31.20
2018-04-30T04:04:53.169Z,28.63
2018-04-30T04:07:20.703Z,27.50
2018-04-30T04:09:48.296Z,22.70
2018-04-30T04:12:16.183Z,23.93
2018-04-30T04:14:44.100Z,18.80
2018-04-30T04:17:11.598Z,12.83
2018-04-30T04:19:39.104Z,7.80
2018-04-30T04:22:06.996Z,4.87
2018-04-30T04:24:34.508Z,3.37
2018-04-30T04:27:02.023Z,3.87
2018-04-30T04:29:29.535Z,2.50
2018-04-30T04:31:57.028Z,1.97
2018-04-30T04:34:24.543Z,1.70
2018-04-30T04:36:52.032Z,1.20
2018-04-30T04:39:19.547Z,1.03
2018-04-30T04:41:47.082Z,0.93
2018-04-30T04:44:14.960Z,1.40
2018-04-30T04:46:42.460Z,1.60
2018-04-30T04:49:09.975Z,2.60
2018-04-30T04:51:37.866Z,3.40
2018-04-30T04:54:05.379Z,3.27
2018-04-30T04:56:32.871Z,3.30
2018-04-30T04:59:00.380Z,3.93
2018-04-30T05:01:27.876Z,4.17
2018-04-30T05:03:55.406Z,3.10
2018-04-30T05:06:23.300Z,2.47
2018-04-30T05:08:50.817Z,1.57
2018-04-30T05:11:18.304Z,1.70
2018-04-30T05:13:45.820Z,1.97
2018-04-30T05:16:13.319Z,2.60
2018-04-30T05:18:40.827Z,3.43
2018-04-30T05:21:08.311Z,5.20
2018-04-30T05:23:36.219Z,5.80
2018-04-30T05:26:03.720Z,6.47
2018-04-30T05:28:31.242Z,5.87
2018-04-30T05:30:58.734Z,4.97
2018-04-30T05:33:26.240Z,4.77
2018-04-30T05:35:53.751Z,4.47
2018-04-30T05:38:21.641Z,3.60
2018-04-30T05:40:49.153Z,3.83
2018-04-30T05:43:16.647Z,3.87
2018-04-30T05:45:44.340Z,4.40
2018-04-30T05:48:12.234Z,5.17
2018-04-30T05:50:39.743Z,4.90
2018-04-30T05:53:07.231Z,4.50
2018-04-30T05:55:34.735Z,4.70
2018-04-30T05:58:02.223Z,3.13
2018-04-30T06:00:29.814Z,2.47
2018-04-30T06:02:57.240Z,2.43
2018-04-30T06:05:25.172Z,2.60
2018-04-30T06:07:52.663Z,3.00
2018-04-30T06:10:20.191Z,2.10
2018-04-30T06:12:47.691Z,2.40
2018-04-30T06:15:15.299Z,2.20
2018-04-30T06:17:42.723Z,1.70
2018-04-30T06:20:10.230Z,2.00
2018-04-30T06:22:37.723Z,1.57
2018-04-30T06:25:05.630Z,1.50
2018-04-30T06:27:33.131Z,1.83
2018-04-30T06:30:00.643Z,2.20
2018-04-30T06:32:28.530Z,1.80
2018-04-30T06:34:56.043Z,1.40
2018-04-30T06:37:23.535Z,1.30
2018-04-30T06:39:51.048Z,1.70
2018-04-30T06:42:18.942Z,1.43
2018-04-30T06:44:46.455Z,1.37
2018-04-30T06:47:13.949Z,1.20
2018-04-30T06:49:41.460Z,0.80
2018-04-30T06:52:08.980Z,0.63
2018-04-30T06:54:36.487Z,1.00
2018-04-30T06:57:03.983Z,0.50
2018-04-30T06:59:31.479Z,0.73
2018-04-30T07:01:59.006Z,0.70
2018-04-30T07:04:26.495Z,0.73
2018-04-30T07:06:54.001Z,1.20
2018-04-30T07:09:21.566Z,0.93
2018-04-30T07:11:49.036Z,0.90
2018-04-30T07:14:16.541Z,1.10
2018-04-30T07:16:44.445Z,1.50
2018-04-30T07:19:11.942Z,1.07
2018-04-30T07:21:39.456Z,1.50
2018-04-30T07:24:06.952Z,1.10
2018-04-30T07:26:34.469Z,1.13
2018-04-30T07:29:01.981Z,1.60
2018-04-30T07:31:29.888Z,1.30
2018-04-30T07:33:57.387Z,1.30
2018-04-30T07:36:24.905Z,1.43
2018-04-30T07:38:52.791Z,1.57
2018-04-30T07:41:20.303Z,1.87
2018-04-30T07:43:47.799Z,1.47
2018-04-30T07:46:15.315Z,1.60
2018-04-30T07:48:42.809Z,1.30
2018-04-30T07:51:10.331Z,1.60
2018-04-30T07:53:38.224Z,1.00
2018-04-30T07:56:05.746Z,1.50
2018-04-30T07:58:33.236Z,1.37
2018-04-30T08:01:00.747Z,1.10
2018-04-30T08:03:28.239Z,1.20
2018-04-30T08:05:55.748Z,1.10
2018-04-30T08:08:23.986Z,1.27
2018-04-30T08:10:51.504Z,1.30
2018-04-30T08:13:20.057Z,1.00
2018-04-30T08:15:47.566Z,1.00
2018-04-30T08:18:15.066Z,1.00
2018-04-30T08:20:42.979Z,1.00
2018-04-30T08:23:10.481Z,1.57
2018-04-30T08:25:38.000Z,1.30
2018-04-30T08:28:05.487Z,1.20
2018-04-30T08:30:32.983Z,1.40
2018-04-30T08:33:00.495Z,2.13
2018-04-30T08:35:27.989Z,1.20
2018-04-30T08:37:55.512Z,1.30
2018-04-30T08:40:23.132Z,1.90
2018-04-30T08:42:50.675Z,1.60
2018-04-30T08:45:18.171Z,1.03
2018-04-30T08:47:46.157Z,1.40
2018-04-30T08:50:13.647Z,1.30
2018-04-30T08:52:41.159Z,1.30
2018-04-30T08:55:08.695Z,1.17
2018-04-30T08:57:36.203Z,1.60
2018-04-30T09:00:03.696Z,1.67
2018-04-30T09:02:31.608Z,1.70
2018-04-30T09:04:59.108Z,1.30
2018-04-30T09:07:26.622Z,1.43
2018-04-30T09:09:54.812Z,1.50
2018-04-30T09:12:22.747Z,1.43
2018-04-30T09:14:50.273Z,1.30
2018-04-30T09:17:17.812Z,1.03
2018-04-30T09:19:45.310Z,1.03
2018-04-30T09:22:13.211Z,1.60
2018-04-30T09:24:40.708Z,1.40
2018-04-30T09:27:08.292Z,1.90
2018-04-30T09:29:35.919Z,0.93
2018-04-30T09:32:03.461Z,0.90
2018-04-30T09:34:31.355Z,1.20
2018-04-30T09:36:59.264Z,0.80
2018-04-30T09:39:26.803Z,0.80
2018-04-30T09:41:54.708Z,0.70
2018-04-30T09:44:22.200Z,0.60
2018-04-30T09:46:49.747Z,0.77
2018-04-30T09:49:17.283Z,0.70
2018-04-30T09:51:44.775Z,0.80
2018-04-30T09:54:12.664Z,0.80
2018-04-30T09:56:40.164Z,1.00
2018-04-30T09:59:07.672Z,0.97
2018-04-30T10:01:35.162Z,1.37
2018-04-30T10:04:03.064Z,1.00
2018-04-30T10:06:30.556Z,1.40
2018-04-30T10:08:58.063Z,1.03
2018-04-30T10:11:25.559Z,1.40
2018-04-30T10:13:53.467Z,1.07
2018-04-30T10:16:20.959Z,1.20
2018-04-30T10:18:48.481Z,1.30
2018-04-30T10:21:16.654Z,2.10
2018-04-30T10:23:44.189Z,0.83
2018-04-30T10:26:11.692Z,0.80
2018-04-30T10:28:39.303Z,1.00
2018-04-30T10:31:06.724Z,0.70
2018-04-30T10:33:34.241Z,0.80
2018-04-30T10:36:01.743Z,0.87
2018-04-30T10:38:29.255Z,0.67
2018-04-30T10:40:57.149Z,1.00
2018-04-30T10:43:24.667Z,0.80
2018-04-30T10:45:52.246Z,0.80
2018-04-30T10:48:19.689Z,1.03
2018-04-30T10:50:47.192Z,0.90
2018-04-30T10:53:14.711Z,0.73
2018-04-30T10:55:42.208Z,0.83
2018-04-30T10:58:09.727Z,1.10
2018-04-30T11:00:37.244Z,0.80
2018-04-30T11:03:04.909Z,0.90
2018-04-30T11:05:32.405Z,1.30
2018-04-30T11:07:59.927Z,1.10
2018-04-30T11:10:27.817Z,0.77
2018-04-30T11:12:55.331Z,0.80
2018-04-30T11:15:22.827Z,0.80
2018-04-30T11:17:50.344Z,0.80
2018-04-30T11:20:17.877Z,1.13
2018-04-30T11:22:45.491Z,0.80
2018-04-30T11:25:12.923Z,0.60
2018-04-30T11:27:40.496Z,0.90
2018-04-30T11:30:07.948Z,0.60
2018-04-30T11:32:35.443Z,1.00
2018-04-30T11:35:03.400Z,0.90
2018-04-30T11:37:30.887Z,0.93
2018-04-30T11:39:58.469Z,0.90
2018-04-30T11:42:25.924Z,0.60
2018-04-30T11:44:53.847Z,1.03
2018-04-30T11:47:21.472Z,0.60
2018-04-30T11:49:49.391Z,0.80
2018-04-30T11:52:16.928Z,0.80
2018-04-30T11:54:45.199Z,0.90
2018-04-30T11:57:12.696Z,0.70
2018-04-30T11:59:40.607Z,0.60
2018-04-30T12:02:08.120Z,0.60
2018-04-30T12:04:37.057Z,0.90
2018-04-30T12:07:04.587Z,0.80
2018-04-30T12:09:32.104Z,0.50
2018-04-30T12:11:59.611Z,0.60
2018-04-30T12:14:27.307Z,0.70
2018-04-30T12:16:55.051Z,0.40
2018-04-30T12:19:24.416Z,0.63
2018-04-30T12:21:52.471Z,0.40
2018-04-30T12:24:20.072Z,0.50
2018-04-30T12:26:47.661Z,0.53
2018-04-30T12:29:16.423Z,0.60
2018-04-30T12:31:44.998Z,0.73
2018-04-30T12:34:12.535Z,0.40
2018-04-30T12:36:40.048Z,0.50
2018-04-30T12:39:07.680Z,0.50
2018-04-30T12:41:36.244Z,0.60
2018-04-30T12:44:03.776Z,0.47
2018-04-30T12:46:31.390Z,0.50
2018-04-30T12:48:58.932Z,0.50
2018-04-30T12:51:26.445Z,0.50
2018-04-30T12:53:54.371Z,0.50
2018-04-30T12:56:22.152Z,0.63
2018-04-30T12:58:50.224Z,1.00
2018-04-30T13:01:17.768Z,0.67
2018-04-30T13:03:46.980Z,0.60
2018-04-30T13:06:15.753Z,0.70
2018-04-30T13:08:44.520Z,0.40
2018-04-30T13:11:12.132Z,0.73
2018-04-30T13:13:39.639Z,1.00
2018-04-30T13:16:07.164Z,0.60
2018-04-30T13:18:34.667Z,0.40
2018-04-30T13:21:02.575Z,0.80
2018-04-30T13:23:30.076Z,0.80
2018-04-30T13:25:57.599Z,0.60
2018-04-30T13:28:25.091Z,0.50
2018-04-30T13:30:52.599Z,0.70
2018-04-30T13:33:20.093Z,0.30
2018-04-30T13:35:48.810Z,0.40
2018-04-30T13:38:16.300Z,0.50
2018-04-30T13:40:44.236Z,0.57
2018-04-30T13:43:11.824Z,0.43
2018-04-30T13:45:39.728Z,0.60
2018-04-30T13:48:07.231Z,0.40
2018-04-30T13:50:34.739Z,0.70
2018-04-30T13:53:02.235Z,0.87
2018-04-30T13:55:29.747Z,0.70
2018-04-30T13:57:57.239Z,0.50
2018-04-30T14:00:24.752Z,0.60
2018-04-30T14:02:52.273Z,0.60
2018-04-30T14:05:20.344Z,0.53
2018-04-30T14:07:47.844Z,0.73
2018-04-30T14:10:15.760Z,0.70
2018-04-30T14:12:43.268Z,0.67
2018-04-30T14:15:10.785Z,0.60
2018-04-30T14:17:38.285Z,0.50
2018-04-30T14:20:05.801Z,0.47
2018-04-30T14:22:33.696Z,0.57
2018-04-30T14:25:01.200Z,0.50
2018-04-30T14:27:28.716Z,0.60
2018-04-30T14:29:56.212Z,0.47
2018-04-30T14:32:23.715Z,0.57
2018-04-30T14:34:51.203Z,0.40
2018-04-30T14:37:18.712Z,0.47
2018-04-30T14:39:46.600Z,0.30
2018-04-30T14:42:14.113Z,0.37
2018-04-30T14:44:41.613Z,0.30
2018-04-30T14:47:09.571Z,0.30
2018-04-30T14:49:37.066Z,0.50
2018-04-30T14:52:04.588Z,0.40
2018-04-30T14:54:32.087Z,0.30
2018-04-30T14:56:59.604Z,0.53
2018-04-30T14:59:27.108Z,0.37
2018-04-30T15:01:54.632Z,0.40
2018-04-30T15:04:22.530Z,0.30
2018-04-30T15:06:50.067Z,0.60
2018-04-30T15:09:17.595Z,0.35
2018-04-30T15:11:45.147Z,0.30
2018-04-30T15:14:12.656Z,1.05
2018-04-30T15:16:40.175Z,0.60
2018-04-30T15:19:07.675Z,0.37
2018-04-30T15:21:35.253Z,0.40
2018-04-30T15:24:02.763Z,0.40
2018-04-30T15:26:30.307Z,0.50
2018-04-30T15:28:57.865Z,0.70
2018-04-30T15:31:25.396Z,0.70
2018-04-30T15:33:53.296Z,0.37
2018-04-30T15:36:20.819Z,0.68
2018-04-30T15:38:48.314Z,0.47
2018-04-30T15:41:16.261Z,0.60
2018-04-30T15:43:43.763Z,0.43
2018-04-30T15:46:11.734Z,0.60
2018-04-30T15:48:39.352Z,0.50
2018-04-30T15:51:06.842Z,0.45
2018-04-30T15:53:34.358Z,0.50
2018-04-30T15:56:02.252Z,0.50
2018-04-30T15:58:29.760Z,0.40
2018-04-30T16:00:57.255Z,0.40
2018-04-30T16:03:24.760Z,0.40
2018-04-30T16:05:52.651Z,0.80
2018-04-30T16:08:20.155Z,0.50
2018-04-30T16:10:47.651Z,0.33
2018-04-30T16:13:15.175Z,0.40
2018-04-30T16:15:42.715Z,0.70
2018-04-30T16:18:10.623Z,0.80
2018-04-30T16:20:38.131Z,0.60
2018-04-30T16:23:05.652Z,0.60
2018-04-30T16:25:33.472Z,1.83
2018-04-30T16:28:00.979Z,0.77
2018-04-30T16:30:28.489Z,0.60
2018-04-30T16:32:56.020Z,0.50
2018-04-30T16:35:23.911Z,0.40
2018-04-30T16:37:51.812Z,0.37
2018-04-30T16:40:19.315Z,0.47
2018-04-30T16:42:46.823Z,0.40
2018-04-30T16:45:14.712Z,0.50
2018-04-30T16:47:42.618Z,0.70
2018-04-30T16:50:10.111Z,0.40
2018-04-30T16:52:37.805Z,0.40
2018-04-30T16:55:05.295Z,0.40
2018-04-30T16:57:33.393Z,0.50
2018-04-30T17:00:00.888Z,0.60
2018-04-30T17:02:28.448Z,0.40
2018-04-30T17:04:56.028Z,0.57
2018-04-30T17:07:23.607Z,0.43
2018-04-30T17:09:51.178Z,0.40
2018-04-30T17:12:18.700Z,0.80
2018-04-30T17:14:46.699Z,0.40
2018-04-30T17:17:14.232Z,0.50
2018-04-30T17:19:41.723Z,0.50
2018-04-30T17:22:09.625Z,0.40
2018-04-30T17:24:37.143Z,0.40
2018-04-30T17:27:04.640Z,0.40
2018-04-30T17:29:32.556Z,0.57
2018-04-30T17:32:00.064Z,0.60
2018-04-30T17:34:27.600Z,0.60
2018-04-30T17:36:55.103Z,0.40
2018-04-30T17:39:22.701Z,0.50
2018-04-30T17:41:50.218Z,0.40
2018-04-30T17:44:17.732Z,0.40
2018-04-30T17:46:45.231Z,0.80
2018-04-30T17:49:12.752Z,0.40
2018-04-30T17:51:40.275Z,0.40
2018-04-30T17:54:07.876Z,0.65
2018-04-30T17:56:35.303Z,0.75
2018-04-30T17:59:03.263Z,0.60
2018-04-30T18:01:31.171Z,0.60
2018-04-30T18:03:59.088Z,0.90
2018-04-30T18:06:26.589Z,0.60
2018-04-30T18:08:54.100Z,0.60
2018-04-30T18:11:21.600Z,0.55
2018-04-30T18:13:49.123Z,0.47
2018-04-30T18:16:17.024Z,0.70
2018-04-30T18:18:44.540Z,0.50
2018-04-30T18:21:12.053Z,0.68
2018-04-30T18:23:39.961Z,0.50
2018-04-30T18:26:07.536Z,0.85
2018-04-30T18:28:35.098Z,0.40
2018-04-30T18:31:02.620Z,0.50
2018-04-30T18:33:30.143Z,0.60
2018-04-30T18:35:57.828Z,0.50
2018-04-30T18:38:25.343Z,0.52
2018-04-30T18:40:52.844Z,0.80
2018-04-30T18:43:20.383Z,0.68
2018-04-30T18:45:47.883Z,0.60
2018-04-30T18:48:15.413Z,0.50
2018-04-30T18:50:42.923Z,0.50
2018-04-30T18:53:10.828Z,0.60
2018-04-30T18:55:38.351Z,0.70
2018-04-30T18:58:05.853Z,0.40
2018-04-30T19:00:33.376Z,0.40
2018-04-30T19:03:00.891Z,0.40
2018-04-30T19:05:28.404Z,0.50
2018-04-30T19:07:55.957Z,0.45
2018-04-30T19:10:23.473Z,0.40
2018-04-30T19:12:50.984Z,0.70
2018-04-30T19:15:18.515Z,0.30
2018-04-30T19:17:46.007Z,0.32
2018-04-30T19:20:13.988Z,0.52
2018-04-30T19:22:41.453Z,0.30
2018-04-30T19:25:09.356Z,0.60
2018-04-30T19:27:36.859Z,0.40
2018-04-30T19:30:04.389Z,0.50
2018-04-30T19:32:31.894Z,0.43
2018-04-30T19:34:59.412Z,0.40
2018-04-30T19:37:26.923Z,0.60
2018-04-30T19:39:54.432Z,0.40
2018-04-30T19:42:21.928Z,0.30
2018-04-30T19:44:49.870Z,0.20
2018-04-30T19:47:17.364Z,0.40
2018-04-30T19:49:44.870Z,0.22
2018-04-30T19:52:12.362Z,0.40
2018-04-30T19:54:39.866Z,0.70
2018-04-30T19:57:07.355Z,0.30
2018-04-30T19:59:35.307Z,0.40
2018-04-30T20:02:02.835Z,0.40
2018-04-30T20:04:30.347Z,0.35
2018-04-30T20:06:57.852Z,0.40
2018-04-30T20:09:25.360Z,0.20
2018-04-30T20:11:52.978Z,0.20
2018-04-30T20:14:20.591Z,0.32
2018-04-30T20:16:48.559Z,0.40
2018-04-30T20:19:16.447Z,0.20
2018-04-30T20:21:44.351Z,0.62
2018-04-30T20:24:11.849Z,0.20
2018-04-30T20:26:39.364Z,0.47
2018-04-30T20:29:07.261Z,0.30
2018-04-30T20:31:34.772Z,0.20
2018-04-30T20:34:02.263Z,0.30
2018-04-30T20:36:29.776Z,0.30
2018-04-30T20:38:57.269Z,0.40
2018-04-30T20:41:24.780Z,0.30
2018-04-30T20:43:52.271Z,0.60
2018-04-30T20:46:20.185Z,0.55
2018-04-30T20:48:47.684Z,0.73
2018-04-30T20:51:15.187Z,0.30
2018-04-30T20:53:42.680Z,0.40
2018-04-30T20:56:10.189Z,0.50
2018-04-30T20:58:37.691Z,0.30
2018-04-30T21:01:05.195Z,0.40
2018-04-30T21:03:32.690Z,0.62
2018-04-30T21:06:00.208Z,0.30
2018-04-30T21:08:27.691Z,0.30
2018-04-30T21:10:55.932Z,0.40
2018-04-30T21:13:23.424Z,0.30
2018-04-30T21:15:51.052Z,0.20
2018-04-30T21:18:18.540Z,0.40
2018-04-30T21:20:46.048Z,0.28
2018-04-30T21:23:13.549Z,0.30
2018-04-30T21:25:41.058Z,0.30
2018-04-30T21:28:08.551Z,0.40
2018-04-30T21:30:36.204Z,0.45
2018-04-30T21:33:03.695Z,0.57
2018-04-30T21:35:31.212Z,0.40
2018-04-30T21:37:58.707Z,0.50
2018-04-30T21:40:26.227Z,0.55
2018-04-30T21:42:54.110Z,0.30
2018-04-30T21:45:21.991Z,0.35
2018-04-30T21:47:49.900Z,0.47
2018-04-30T21:50:17.396Z,0.40
2018-04-30T21:52:44.899Z,0.30
2018-04-30T21:55:12.387Z,0.50
2018-04-30T21:57:40.284Z,0.50
2018-04-30T22:00:07.774Z,0.95
2018-04-30T22:02:35.281Z,0.40
2018-04-30T22:05:02.773Z,0.30
2018-04-30T22:07:30.668Z,0.47
2018-04-30T22:09:58.156Z,0.40
2018-04-30T22:12:25.670Z,0.45
2018-04-30T22:14:53.160Z,0.30
2018-04-30T22:17:21.163Z,0.30
2018-04-30T22:19:48.648Z,0.30
2018-04-30T22:22:16.152Z,0.77
2018-04-30T22:24:43.652Z,0.35
2018-04-30T22:27:11.547Z,0.37
2018-04-30T22:29:39.035Z,0.50
2018-04-30T22:32:06.542Z,0.68
2018-04-30T22:34:34.028Z,0.50
2018-04-30T22:37:01.533Z,0.40
2018-04-30T22:39:29.050Z,0.45
2018-04-30T22:41:56.561Z,0.35
2018-04-30T22:44:24.439Z,0.57
2018-04-30T22:46:52.344Z,0.37
2018-04-30T22:49:19.827Z,0.30
2018-04-30T22:51:47.347Z,0.60
2018-04-30T22:54:14.843Z,0.75
2018-04-30T22:56:42.344Z,0.55
2018-04-30T22:59:09.832Z,0.32
2018-04-30T23:01:37.343Z,0.50
2018-04-30T23:04:05.229Z,0.40
2018-04-30T23:06:33.136Z,0.30
2018-04-30T23:09:00.646Z,0.40
2018-04-30T23:11:28.144Z,0.40
2018-04-30T23:13:55.648Z,0.28
2018-04-30T23:16:23.139Z,0.30
2018-04-30T23:18:50.667Z,0.30
2018-04-30T23:21:18.553Z,0.30
2018-04-30T23:23:46.116Z,0.30
2018-04-30T23:26:14.001Z,0.30
2018-04-30T23:28:41.507Z,0.40
2018-04-30T23:31:08.991Z,0.20
2018-04-30T23:33:36.507Z,0.28
2018-04-30T23:36:04.403Z,0.30
2018-04-30T23:38:31.942Z,0.40
2018-04-30T23:40:59.447Z,0.30
2018-04-30T23:43:26.947Z,0.30
2018-04-30T23:45:54.432Z,0.20
2018-04-30T23:48:21.931Z,0.30
2018-04-30T23:50:49.815Z,0.20
2018-04-30T23:53:17.724Z,0.20
2018-04-30T23:55:45.224Z,0.40
2018-04-30T23:58:12.735Z,0.30
